createdAt,value
2022-09-12T00:01:32.122Z,82.42
2022-09-12T00:04:00.936Z,81.36
2022-09-12T00:06:33.006Z,82.79
2022-09-12T00:09:01.931Z,83.93
2022-09-12T00:11:28.833Z,83.81
2022-09-12T00:13:57.489Z,83.07
2022-09-12T00:16:25.568Z,82.07
2022-09-12T00:18:53.571Z,81.65
2022-09-12T00:21:21.243Z,82.06
2022-09-12T00:23:48.478Z,82.56
2022-09-12T00:26:15.483Z,83.64
2022-09-12T00:28:42.322Z,82.15
2022-09-12T00:31:11.404Z,81.33
2022-09-12T00:33:38.247Z,81.54
2022-09-12T00:36:15.013Z,82.31
2022-09-12T00:38:42.839Z,83.64
2022-09-12T00:41:21.666Z,84.82
2022-09-12T00:43:50.881Z,83.41
2022-09-12T00:46:20.795Z,82.26
2022-09-12T00:48:50.713Z,82.90
2022-09-12T00:51:18.272Z,83.02
2022-09-12T00:53:45.301Z,84.13
2022-09-12T00:56:12.589Z,84.06
2022-09-12T00:58:54.142Z,82.25
2022-09-12T01:01:21.154Z,81.68
2022-09-12T01:03:48.217Z,82.54
2022-09-12T01:06:37.509Z,83.86
2022-09-12T01:09:05.212Z,84.81
2022-09-12T01:11:36.737Z,83.44
2022-09-12T01:14:06.530Z,82.23
2022-09-12T01:16:36.994Z,81.89
2022-09-12T01:19:04.229Z,82.31
2022-09-12T01:22:25.673Z,82.91
2022-09-12T01:25:30.157Z,83.24
2022-09-12T01:28:29.662Z,81.11
2022-09-12T01:31:29.876Z,80.89
2022-09-12T01:34:44.703Z,81.56
2022-09-12T01:37:31.772Z,82.80
2022-09-12T01:40:21.866Z,82.51
2022-09-12T01:42:59.159Z,80.79
2022-09-12T01:46:10.982Z,79.92
2022-09-12T01:49:02.306Z,80.59
2022-09-12T01:51:34.906Z,81.49
2022-09-12T01:54:31.997Z,82.45
2022-09-12T01:57:00.894Z,80.64
2022-09-12T01:59:30.893Z,79.83
2022-09-12T02:02:03.251Z,80.53
2022-09-12T02:04:36.098Z,81.43
2022-09-12T02:07:14.882Z,82.40
2022-09-12T02:09:45.838Z,82.87
2022-09-12T02:12:14.190Z,81.21
2022-09-12T02:14:44.475Z,80.12
2022-09-12T02:17:16.856Z,80.64
2022-09-12T02:19:47.157Z,81.86
2022-09-12T02:22:17.429Z,82.50
2022-09-12T02:24:47.016Z,82.05
2022-09-12T02:27:38.152Z,80.35
2022-09-12T02:30:06.477Z,80.55
2022-09-12T02:32:38.309Z,81.26
2022-09-12T02:35:08.837Z,82.04
2022-09-12T02:37:54.295Z,83.30
2022-09-12T02:40:21.526Z,82.52
2022-09-12T02:42:49.517Z,80.92
2022-09-12T02:45:16.465Z,81.70
2022-09-12T02:48:08.809Z,82.47
2022-09-12T02:50:35.952Z,82.99
2022-09-12T02:53:05.253Z,83.85
2022-09-12T02:55:33.106Z,82.74
2022-09-12T02:58:03.927Z,80.52
2022-09-12T03:00:55.227Z,80.15
2022-09-12T03:03:28.258Z,80.95
2022-09-12T03:05:59.936Z,81.29
2022-09-12T03:09:05.060Z,82.31
2022-09-12T03:11:54.122Z,81.66
2022-09-12T03:14:37.091Z,80.32
2022-09-12T03:17:07.052Z,80.53
2022-09-12T03:19:44.967Z,81.51
2022-09-12T03:22:28.593Z,82.99
2022-09-12T03:25:16.753Z,82.47
2022-09-12T03:28:09.080Z,81.32
2022-09-12T03:30:44.012Z,81.48
2022-09-12T03:33:12.060Z,82.60
2022-09-12T03:35:38.913Z,83.28
2022-09-12T03:38:08.316Z,82.28
2022-09-12T03:40:36.308Z,80.87
2022-09-12T03:43:04.400Z,81.65
2022-09-12T03:45:31.475Z,82.09
2022-09-12T03:47:58.459Z,82.68
2022-09-12T03:50:25.500Z,83.51
2022-09-12T03:52:52.386Z,83.17
2022-09-12T03:55:19.641Z,81.58
2022-09-12T03:57:46.547Z,81.39
2022-09-12T04:00:17.646Z,81.94
2022-09-12T04:02:46.110Z,82.98
2022-09-12T04:05:13.119Z,84.16
2022-09-12T04:07:40.070Z,83.36
2022-09-12T04:10:07.532Z,81.40
2022-09-12T04:12:35.891Z,81.29
2022-09-12T04:15:02.870Z,80.75
2022-09-12T04:17:29.881Z,81.77
2022-09-12T04:19:56.824Z,82.48
2022-09-12T04:22:24.089Z,82.99
2022-09-12T04:24:51.538Z,82.35
2022-09-12T04:27:18.428Z,80.76
2022-09-12T04:29:45.424Z,80.04
2022-09-12T04:32:12.338Z,79.98
2022-09-12T04:34:39.357Z,81.62
2022-09-12T04:37:06.260Z,82.88
2022-09-12T04:39:33.207Z,82.68
2022-09-12T04:42:00.151Z,81.58
2022-09-12T04:44:27.137Z,81.02
2022-09-12T04:46:54.145Z,81.14
2022-09-12T04:49:21.057Z,81.83
2022-09-12T04:51:47.890Z,82.96
2022-09-12T04:54:16.615Z,82.71
2022-09-12T04:56:45.232Z,81.39
2022-09-12T04:59:13.293Z,81.10
2022-09-12T05:01:40.258Z,81.64
2022-09-12T05:04:07.488Z,82.75
2022-09-12T05:06:35.885Z,83.29
2022-09-12T05:09:04.367Z,82.42
2022-09-12T05:11:59.621Z,81.36
2022-09-12T05:14:19.763Z,81.83
2022-09-12T05:16:49.458Z,82.30
2022-09-12T05:19:16.884Z,82.91
2022-09-12T05:21:43.836Z,82.41
2022-09-12T05:24:10.700Z,80.92
2022-09-12T05:26:37.528Z,80.54
2022-09-12T05:29:04.671Z,80.75
2022-09-12T05:31:31.957Z,81.25
2022-09-12T05:33:58.962Z,82.11
2022-09-12T05:36:29.887Z,81.38
2022-09-12T05:38:57.179Z,80.32
2022-09-12T05:41:25.839Z,80.02
2022-09-12T05:43:57.296Z,80.36
2022-09-12T05:46:32.454Z,81.34
2022-09-12T05:49:03.377Z,82.48
2022-09-12T05:51:33.082Z,82.13
2022-09-12T05:54:01.451Z,80.80
2022-09-12T05:56:29.911Z,80.38
2022-09-12T05:59:02.145Z,81.22
2022-09-12T06:01:30.379Z,81.45
2022-09-12T06:04:01.121Z,82.28
2022-09-12T06:06:29.151Z,81.34
2022-09-12T06:09:00.397Z,80.44
2022-09-12T06:11:28.978Z,80.77
2022-09-12T06:13:57.179Z,81.43
2022-09-12T06:16:29.189Z,81.75
2022-09-12T06:19:07.458Z,82.25
2022-09-12T06:21:38.016Z,81.62
2022-09-12T06:24:05.238Z,80.89
2022-09-12T06:26:32.152Z,80.74
2022-09-12T06:29:00.901Z,81.05
2022-09-12T06:31:30.266Z,81.93
2022-09-12T06:33:58.360Z,82.96
2022-09-12T06:36:27.381Z,82.68
2022-09-12T06:38:58.691Z,80.89
2022-09-12T06:41:26.045Z,80.47
2022-09-12T06:43:53.568Z,80.38
2022-09-12T06:46:21.250Z,81.50
2022-09-12T06:48:48.774Z,82.22
2022-09-12T06:51:17.621Z,81.50
2022-09-12T06:53:45.689Z,80.18
2022-09-12T06:56:19.354Z,80.86
2022-09-12T06:58:47.510Z,81.14
2022-09-12T07:01:20.753Z,83.17
2022-09-12T07:03:52.918Z,82.78
2022-09-12T07:06:21.907Z,81.37
2022-09-12T07:08:48.900Z,80.96
2022-09-12T07:11:23.762Z,81.20
2022-09-12T07:13:52.706Z,82.48
2022-09-12T07:16:20.371Z,83.41
2022-09-12T07:18:57.867Z,82.33
2022-09-12T07:21:25.184Z,81.05
2022-09-12T07:23:52.131Z,80.70
2022-09-12T07:26:19.180Z,81.75
2022-09-12T07:28:46.225Z,82.14
2022-09-12T07:31:17.849Z,82.66
2022-09-12T07:33:44.943Z,82.10
2022-09-12T07:36:14.018Z,80.65
2022-09-12T07:38:41.311Z,79.99
2022-09-12T07:41:23.411Z,80.61
2022-09-12T07:43:54.512Z,81.17
2022-09-12T07:46:22.561Z,82.71
2022-09-12T07:48:51.414Z,81.21
2022-09-12T07:51:19.239Z,79.99
2022-09-12T07:53:46.689Z,80.50
2022-09-12T07:56:13.871Z,81.51
2022-09-12T07:58:41.999Z,82.27
2022-09-12T08:01:14.180Z,81.80
2022-09-12T08:03:42.341Z,80.06
2022-09-12T08:06:11.158Z,80.48
2022-09-12T08:08:38.869Z,80.53
2022-09-12T08:11:08.275Z,81.68
2022-09-12T08:13:36.224Z,81.89
2022-09-12T08:16:06.061Z,81.31
2022-09-12T08:18:33.143Z,80.71
2022-09-12T08:21:01.010Z,79.72
2022-09-12T08:23:28.927Z,81.81
2022-09-12T08:25:57.766Z,83.68
2022-09-12T08:28:25.837Z,81.09
2022-09-12T08:30:53.944Z,79.84
2022-09-12T08:33:21.101Z,79.41
2022-09-12T08:35:48.108Z,79.66
2022-09-12T08:38:15.063Z,82.17
2022-09-12T08:40:53.568Z,81.41
2022-09-12T08:43:36.264Z,79.20
2022-09-12T08:46:09.761Z,78.32
2022-09-12T08:48:36.728Z,79.67
2022-09-12T08:51:05.288Z,81.00
2022-09-12T08:53:32.083Z,80.52
2022-09-12T08:55:59.915Z,79.08
2022-09-12T08:58:28.663Z,78.83
2022-09-12T09:01:07.446Z,78.57
2022-09-12T09:03:40.891Z,78.97
2022-09-12T09:06:18.452Z,79.51
2022-09-12T09:09:05.226Z,81.55
2022-09-12T09:11:48.289Z,78.54
2022-09-12T09:14:49.192Z,77.12
2022-09-12T09:17:38.005Z,79.23
2022-09-12T09:20:08.062Z,80.01
2022-09-12T09:22:44.745Z,81.35
2022-09-12T09:25:22.599Z,81.50
2022-09-12T09:27:59.414Z,80.31
2022-09-12T09:30:26.433Z,79.23
2022-09-12T09:32:58.853Z,79.45
2022-09-12T09:35:38.180Z,80.69
2022-09-12T09:38:23.676Z,81.48
2022-09-12T09:41:09.334Z,80.47
2022-09-12T09:43:36.278Z,79.54
2022-09-12T09:46:03.509Z,79.63
2022-09-12T09:48:32.320Z,79.60
2022-09-12T09:51:00.801Z,79.67
2022-09-12T09:54:01.570Z,79.93
2022-09-12T09:56:42.669Z,78.87
2022-09-12T09:59:10.277Z,76.73
2022-09-12T10:01:38.305Z,76.74
2022-09-12T10:04:05.218Z,76.87
2022-09-12T10:06:33.216Z,78.46
2022-09-12T10:09:18.959Z,78.82
2022-09-12T10:11:47.685Z,78.13
2022-09-12T10:14:31.365Z,76.78
2022-09-12T10:16:58.919Z,76.01
2022-09-12T10:19:37.201Z,75.24
2022-09-12T10:22:04.795Z,76.35
2022-09-12T10:24:41.316Z,75.02
2022-09-12T10:27:23.879Z,77.52
2022-09-12T10:30:00.980Z,76.76
2022-09-12T10:32:31.006Z,74.16
2022-09-12T10:35:02.838Z,74.09
2022-09-12T10:37:35.312Z,75.65
2022-09-12T10:40:03.808Z,74.36
2022-09-12T10:42:47.478Z,75.47
2022-09-12T10:45:32.098Z,77.15
2022-09-12T10:48:05.449Z,74.65
2022-09-12T10:50:41.409Z,72.38
2022-09-12T10:53:23.187Z,73.02
2022-09-12T10:56:02.125Z,74.12
2022-09-12T10:58:41.210Z,73.97
2022-09-12T11:01:34.493Z,73.09
2022-09-12T11:04:30.590Z,73.73
2022-09-12T11:07:32.034Z,75.55
2022-09-12T11:10:22.238Z,73.77
2022-09-12T11:13:01.925Z,71.75
2022-09-12T11:15:34.869Z,71.37
2022-09-12T11:18:20.643Z,72.83
2022-09-12T11:21:04.594Z,73.10
2022-09-12T11:23:31.419Z,75.03
2022-09-12T11:26:21.132Z,75.33
2022-09-12T11:28:58.289Z,74.73
2022-09-12T11:31:42.032Z,72.76
2022-09-12T11:34:09.894Z,73.76
2022-09-12T11:36:39.909Z,71.76
2022-09-12T11:39:17.501Z,73.42
2022-09-12T11:41:48.506Z,74.05
2022-09-12T11:44:23.581Z,74.40
2022-09-12T11:46:52.095Z,74.44
2022-09-12T11:49:40.534Z,72.75
2022-09-12T11:52:21.069Z,70.35
2022-09-12T11:54:58.873Z,71.01
2022-09-12T11:57:25.834Z,70.58
2022-09-12T11:59:57.893Z,69.90
2022-09-12T12:02:31.791Z,71.49
2022-09-12T12:05:16.760Z,72.16
2022-09-12T12:07:54.351Z,72.85
2022-09-12T12:10:33.075Z,73.06
2022-09-12T12:13:02.131Z,74.26
2022-09-12T12:15:29.032Z,73.08
2022-09-12T12:18:05.997Z,72.41
2022-09-12T12:20:33.015Z,72.34
2022-09-12T12:23:00.087Z,72.94
2022-09-12T12:25:40.193Z,73.23
2022-09-12T12:28:07.288Z,74.20
2022-09-12T12:30:41.060Z,74.44
2022-09-12T12:33:11.034Z,74.99
2022-09-12T12:35:41.865Z,75.28
2022-09-12T12:38:33.578Z,74.31
2022-09-12T12:41:19.074Z,71.59
2022-09-12T12:43:54.598Z,72.19
2022-09-12T12:46:23.025Z,72.82
2022-09-12T12:48:57.751Z,72.22
2022-09-12T12:51:50.372Z,71.18
2022-09-12T12:54:42.358Z,71.07
2022-09-12T12:57:19.894Z,72.48
2022-09-12T13:00:01.946Z,72.92
2022-09-12T13:02:37.486Z,72.31
2022-09-12T13:05:06.823Z,70.37
2022-09-12T13:07:36.620Z,71.33
2022-09-12T13:10:04.912Z,71.66
2022-09-12T13:12:37.549Z,72.69
2022-09-12T13:15:25.337Z,73.32
2022-09-12T13:17:52.350Z,74.35
2022-09-12T13:20:28.461Z,75.31
2022-09-12T13:22:56.327Z,73.79
2022-09-12T13:25:36.188Z,71.98
2022-09-12T13:28:12.302Z,72.03
2022-09-12T13:30:43.752Z,72.47
2022-09-12T13:33:22.365Z,74.41
2022-09-12T13:35:58.398Z,75.31
2022-09-12T13:38:47.453Z,76.12
2022-09-12T13:41:28.469Z,74.70
2022-09-12T13:43:55.297Z,73.21
2022-09-12T13:46:30.350Z,73.54
2022-09-12T13:49:01.896Z,73.50
2022-09-12T13:51:30.680Z,74.15
2022-09-12T13:54:00.295Z,74.84
2022-09-12T13:56:27.136Z,76.37
2022-09-12T13:58:58.333Z,76.80
2022-09-12T14:01:37.346Z,75.73
2022-09-12T14:04:43.891Z,74.98
2022-09-12T14:07:19.074Z,75.46
2022-09-12T14:09:49.285Z,76.05
2022-09-12T14:12:25.505Z,76.32
2022-09-12T14:14:52.803Z,77.30
2022-09-12T14:17:27.589Z,78.53
2022-09-12T14:19:54.632Z,77.42
2022-09-12T14:22:21.742Z,76.56
2022-09-12T14:24:50.673Z,76.97
2022-09-12T14:27:24.654Z,77.50
2022-09-12T14:29:54.773Z,78.74
2022-09-12T14:32:24.819Z,79.56
2022-09-12T14:35:10.738Z,80.61
2022-09-12T14:37:39.092Z,79.16
2022-09-12T14:40:16.941Z,77.60
2022-09-12T14:42:45.096Z,78.14
2022-09-12T14:45:31.359Z,79.00
2022-09-12T14:47:58.832Z,79.65
2022-09-12T14:50:27.887Z,80.69
2022-09-12T14:53:21.496Z,80.02
2022-09-12T14:55:53.940Z,77.98
2022-09-12T14:58:20.906Z,78.12
2022-09-12T15:00:58.025Z,78.60
2022-09-12T15:03:50.019Z,79.77
2022-09-12T15:06:23.510Z,81.31
2022-09-12T15:08:50.786Z,82.09
2022-09-12T15:11:17.809Z,81.15
2022-09-12T15:13:45.001Z,79.16
2022-09-12T15:16:12.291Z,78.70
2022-09-12T15:18:39.447Z,78.63
2022-09-12T15:21:10.821Z,79.74
2022-09-12T15:23:51.916Z,80.49
2022-09-12T15:26:20.676Z,81.29
2022-09-12T15:28:47.673Z,80.24
2022-09-12T15:31:29.179Z,78.42
2022-09-12T15:33:57.323Z,78.65
2022-09-12T15:36:25.047Z,79.15
2022-09-12T15:38:52.848Z,80.42
2022-09-12T15:41:22.258Z,81.49
2022-09-12T15:43:49.908Z,81.10
2022-09-12T15:46:18.104Z,79.58
2022-09-12T15:48:45.438Z,79.23
2022-09-12T15:51:17.658Z,79.57
2022-09-12T15:53:44.818Z,80.95
2022-09-12T15:56:12.381Z,81.89
2022-09-12T15:58:54.592Z,81.71
2022-09-12T16:01:24.547Z,80.06
2022-09-12T16:03:51.962Z,79.88
2022-09-12T16:06:19.002Z,80.60
2022-09-12T16:08:46.013Z,81.36
2022-09-12T16:11:21.149Z,82.36
2022-09-12T16:13:48.960Z,83.51
2022-09-12T16:16:16.096Z,82.44
2022-09-12T16:18:43.231Z,80.52
2022-09-12T16:21:14.871Z,79.99
2022-09-12T16:23:46.391Z,80.44
2022-09-12T16:26:13.406Z,81.74
2022-09-12T16:28:40.659Z,82.67
2022-09-12T16:31:08.931Z,82.23
2022-09-12T16:33:37.542Z,79.93
2022-09-12T16:36:06.448Z,79.44
2022-09-12T16:38:34.039Z,80.28
2022-09-12T16:41:05.417Z,81.00
2022-09-12T16:43:33.389Z,81.98
2022-09-12T16:46:03.205Z,82.69
2022-09-12T16:48:30.657Z,82.09
2022-09-12T16:51:02.075Z,80.31
2022-09-12T16:53:33.317Z,79.52
2022-09-12T16:56:00.397Z,80.19
2022-09-12T16:58:27.873Z,81.71
2022-09-12T17:01:22.618Z,82.28
2022-09-12T17:03:53.733Z,83.37
2022-09-12T17:06:20.814Z,82.39
2022-09-12T17:08:50.071Z,80.96
2022-09-12T17:11:19.086Z,81.16
2022-09-12T17:14:04.477Z,81.71
2022-09-12T17:16:34.340Z,82.67
2022-09-12T17:19:01.273Z,83.62
2022-09-12T17:21:28.416Z,83.36
2022-09-12T17:23:55.566Z,81.28
2022-09-12T17:26:22.610Z,81.09
2022-09-12T17:28:49.869Z,81.28
2022-09-12T17:31:17.505Z,82.65
2022-09-12T17:33:44.678Z,83.68
2022-09-12T17:36:15.280Z,82.90
2022-09-12T17:38:43.279Z,81.61
2022-09-12T17:41:16.126Z,80.97
2022-09-12T17:43:44.644Z,81.67
2022-09-12T17:46:11.710Z,82.38
2022-09-12T17:48:40.680Z,83.43
2022-09-12T17:51:15.194Z,82.86
2022-09-12T17:53:42.675Z,81.53
2022-09-12T17:56:10.239Z,81.39
2022-09-12T17:58:37.165Z,82.01
2022-09-12T18:01:30.294Z,83.14
2022-09-12T18:03:58.090Z,83.96
2022-09-12T18:06:25.034Z,82.92
2022-09-12T18:08:51.923Z,82.18
2022-09-12T18:11:19.032Z,81.86
2022-09-12T18:13:46.046Z,83.13
2022-09-12T18:16:13.570Z,83.93
2022-09-12T18:18:40.605Z,85.09
2022-09-12T18:21:08.791Z,84.05
2022-09-12T18:23:35.930Z,81.66
2022-09-12T18:26:05.762Z,81.29
2022-09-12T18:28:33.844Z,82.00
2022-09-12T18:31:00.836Z,83.18
2022-09-12T18:33:27.841Z,84.12
2022-09-12T18:35:54.804Z,83.51
2022-09-12T18:38:21.804Z,81.84
2022-09-12T18:40:49.531Z,81.69
2022-09-12T18:43:16.514Z,82.85
2022-09-12T18:45:43.446Z,83.59
2022-09-12T18:48:10.438Z,85.05
2022-09-12T18:50:37.342Z,84.63
2022-09-12T18:53:04.268Z,82.73
2022-09-12T18:55:32.595Z,82.52
2022-09-12T18:57:59.580Z,82.90
2022-09-12T19:00:27.154Z,83.79
2022-09-12T19:02:54.185Z,84.54
2022-09-12T19:05:21.135Z,83.69
2022-09-12T19:07:48.196Z,82.25
2022-09-12T19:10:15.234Z,81.95
2022-09-12T19:12:42.168Z,82.70
2022-09-12T19:15:10.038Z,83.87
2022-09-12T19:17:37.086Z,84.99
2022-09-12T19:20:04.888Z,84.39
2022-09-12T19:22:32.521Z,82.40
2022-09-12T19:24:59.694Z,82.00
2022-09-12T19:27:26.606Z,82.71
2022-09-12T19:29:53.757Z,83.76
2022-09-12T19:32:20.905Z,84.69
2022-09-12T19:34:48.052Z,84.33
2022-09-12T19:37:15.544Z,82.98
2022-09-12T19:39:44.558Z,82.35
2022-09-12T19:42:12.175Z,83.25
2022-09-12T19:44:39.623Z,83.88
2022-09-12T19:47:06.668Z,85.02
2022-09-12T19:49:33.718Z,84.43
2022-09-12T19:52:00.878Z,82.19
2022-09-12T19:54:27.956Z,82.19
2022-09-12T19:56:55.381Z,82.76
2022-09-12T19:59:23.338Z,83.68
2022-09-12T20:01:50.336Z,84.37
2022-09-12T20:04:17.437Z,84.17
2022-09-12T20:06:44.482Z,82.45
2022-09-12T20:09:11.552Z,82.46
2022-09-12T22:21:07.203Z,84.46
2022-09-12T22:23:54.015Z,83.45
2022-09-12T22:26:21.258Z,81.30
2022-09-12T22:28:48.537Z,80.85
2022-09-12T22:31:15.934Z,81.74
2022-09-12T22:33:42.917Z,82.61
2022-09-12T22:36:10.173Z,83.52
2022-09-12T22:38:37.344Z,82.61
2022-09-12T22:41:05.741Z,81.20
2022-09-12T22:43:33.589Z,80.36
2022-09-12T22:46:00.818Z,80.25
2022-09-12T22:48:27.670Z,81.20
2022-09-12T22:50:54.396Z,82.60
2022-09-12T22:53:21.271Z,84.04
2022-09-12T22:55:48.389Z,83.09
2022-09-12T22:58:15.313Z,81.23
2022-09-12T23:00:49.833Z,80.62
2022-09-12T23:03:17.745Z,80.78
2022-09-12T23:05:47.023Z,81.21
2022-09-12T23:08:15.421Z,82.72
2022-09-12T23:10:43.570Z,82.26
2022-09-12T23:13:10.353Z,80.83
2022-09-12T23:15:37.666Z,80.50
2022-09-12T23:18:05.233Z,80.85
2022-09-12T23:20:32.290Z,81.51
2022-09-12T23:22:59.218Z,83.02
2022-09-12T23:25:25.951Z,83.94
2022-09-12T23:27:53.516Z,82.94
2022-09-12T23:30:21.075Z,81.17
2022-09-12T23:32:48.656Z,80.81
2022-09-12T23:35:17.907Z,81.51
2022-09-12T23:37:46.109Z,82.27
2022-09-12T23:40:13.093Z,83.45
2022-09-12T23:42:41.112Z,83.69
2022-09-12T23:45:09.528Z,82.42
2022-09-12T23:47:37.572Z,80.19
2022-09-12T23:50:04.970Z,79.84
2022-09-12T23:52:31.842Z,80.23
2022-09-12T23:54:58.924Z,80.93
2022-09-12T23:57:25.886Z,81.48
2022-09-12T23:59:53.221Z,81.06
